Morgenster — PHMY — position and weather

sailwx.info

Track history (hours):
 
Tides and Currents Weather Stations Pressure Air Temp Water Temp Dewpoint Dewpoint Depression Visibility Wind Speed Wind Dir Waves Ship Positions

Morgenster

Last reported at 2014-Oct-25 15:11 UTC. Time now 2014-Oct-25 17:32 UTC.
Position N 52°57' E 004°46'.

Length 46 m; draft 2.4 m.

Type: Sailing vessel. MMSI: 245136000.

Date/timePositionNaut miles runAvg speedWind from/ knotsBaromVisibWave heightAir tempDewpointWater temp
2014-Oct-25 15:11N 52°57' E 004°46'0 0.0
2014-Oct-25 04:08N 52°57' E 004°46'0 0.0
2014-Oct-25 00:26N 52°57' E 004°46'0 0.0
2014-Oct-24 15:23N 52°57' E 004°46'0 0.0
2014-Oct-24 13:20N 52°57' E 004°46'0 0.0
2014-Oct-24 02:20N 52°57' E 004°46'0 0.0
2014-Oct-24 00:20N 52°57' E 004°46'0 0.0
2014-Oct-23 23:08N 52°57' E 004°46'0 0.0
2014-Oct-23 21:26N 52°57' E 004°46'0 0.0
2014-Oct-23 18:14N 52°57' E 004°46'0 0.0
2014-Oct-23 16:32N 52°57' E 004°46'0 0.0
2014-Oct-23 15:14N 52°57' E 004°46'0 0.0
2014-Oct-23 13:14N 52°57' E 004°46'0 0.0
2014-Oct-23 11:20N 52°57' E 004°46'0 0.0
2014-Oct-23 10:08N 52°57' E 004°46'0 0.0
2014-Oct-23 09:08N 52°57' E 004°46'0 0.0
2014-Oct-23 08:26N 52°57' E 004°46'0 0.0
2014-Oct-23 06:26N 52°57' E 004°46'0 0.0
2014-Oct-23 05:29N 52°57' E 004°46'0 0.0
2014-Oct-23 04:14N 52°57' E 004°46'0 0.0
2014-Oct-23 02:14N 52°57' E 004°46'0 0.0
2014-Oct-23 01:32N 52°57' E 004°46'0 0.0
2014-Oct-23 00:14N 52°57' E 004°46'0 0.0
2014-Oct-22 23:32N 52°57' E 004°46'0 0.0
2014-Oct-22 22:32N 52°57' E 004°46'0 0.0
2014-Oct-22 21:32N 52°57' E 004°46'0 0.0
2014-Oct-22 20:20N 52°57' E 004°46'0 0.0
2014-Oct-22 17:20N 52°57' E 004°46'0 0.0
2014-Oct-22 12:29N 52°57' E 004°46'0 0.0
2014-Oct-21 23:26N 52°57' E 004°46'0 0.0
2014-Oct-21 09:26N 52°57' E 004°46'0 0.0
2014-Oct-21 06:29N 52°57' E 004°46'0 0.0
2014-Oct-21 05:29N 52°57' E 004°46'0 0.0
2014-Oct-21 04:20N 52°57' E 004°46'0 0.0
2014-Oct-21 02:20N 52°57' E 004°46'0 0.0
2014-Oct-21 01:17N 52°57' E 004°46'0 0.0
2014-Oct-20 23:23N 52°57' E 004°46'0 0.0
2014-Oct-20 22:23N 52°57' E 004°46'0 0.0
2014-Oct-20 21:23N 52°57' E 004°46'0 0.0
2014-Oct-20 20:26N 52°57' E 004°46'0 0.0
2014-Oct-20 18:26N 52°57' E 004°46'0 0.0
2014-Oct-20 17:29N 52°57' E 004°46'0 0.0
2014-Oct-20 15:17N 52°57' E 004°46'1 0.4
2014-Oct-20 13:31N 52°57' E 004°47'10 5.0
2014-Oct-20 11:33N 52°49' E 004°37'10 9.6
2014-Oct-20 10:33N 52°40' E 004°34'8 8.3
2014-Oct-20 09:33N 52°32' E 004°33'4 4.2
2014-Oct-20 08:33N 52°28' E 004°35'4 4.5
2014-Oct-20 07:33N 52°26' E 004°42'6 5.9
2014-Oct-20 06:34N 52°25' E 004°52'3 3.2
2014-Oct-20 05:32N 52°23' E 004°56'0 0.0
2014-Oct-20 04:32N 52°23' E 004°56'0 0.0
2014-Oct-20 03:32N 52°23' E 004°56'0 0.0
2014-Oct-20 02:32N 52°23' E 004°56'0 0.0
2014-Oct-20 01:32N 52°23' E 004°56'0 0.0
2014-Oct-20 00:32N 52°23' E 004°56'0 0.0
2014-Oct-19 23:32N 52°23' E 004°56'0 0.0
2014-Oct-19 22:32N 52°23' E 004°56'0 0.0
2014-Oct-19 21:29N 52°23' E 004°56'0 0.0
2014-Oct-19 20:32N 52°23' E 004°56'0 0.0
2014-Oct-19 19:32N 52°23' E 004°56'0 0.0
2014-Oct-19 18:32N 52°23' E 004°56'0 0.0
2014-Oct-19 17:32N 52°23' E 004°56'0 0.0
2014-Oct-19 16:32N 52°23' E 004°56'0 0.0
2014-Oct-19 15:32N 52°23' E 004°56'0 0.0
2014-Oct-19 14:29N 52°23' E 004°56'0 0.0
2014-Oct-19 13:32N 52°23' E 004°56'2 1.6
2014-Oct-19 12:34N 52°24' E 004°54'5 5.5
2014-Oct-19 11:34N 52°26' E 004°45'5 5.0
2014-Oct-19 10:33N 52°28' E 004°38'1 0.9
2014-Oct-19 09:33N 52°28' E 004°37'1 0.7
2014-Oct-19 08:34N 52°28' E 004°35'1 0.6
2014-Oct-19 07:32N 52°28' E 004°35'0 0.0
2014-Oct-19 06:32N 52°28' E 004°35'0 0.0
2014-Oct-19 05:32N 52°28' E 004°35'0 0.0
2014-Oct-19 04:32N 52°28' E 004°35'0 0.0
2014-Oct-19 03:32N 52°28' E 004°35'0 0.0
2014-Oct-19 02:32N 52°28' E 004°35'0 0.0
2014-Oct-19 01:32N 52°28' E 004°35'0 0.0
2014-Oct-19 00:32N 52°28' E 004°35'0 0.0
2014-Oct-18 23:32N 52°28' E 004°35'0 0.0
2014-Oct-18 22:29N 52°28' E 004°35'0 0.0
2014-Oct-18 21:29N 52°28' E 004°35'0 0.0
2014-Oct-18 20:32N 52°28' E 004°35'0 0.0
2014-Oct-18 19:29N 52°28' E 004°35'0 0.0
2014-Oct-18 18:32N 52°28' E 004°35'0 0.0
2014-Oct-18 17:32N 52°28' E 004°35'0 0.0
2014-Oct-18 16:32N 52°28' E 004°35'0 0.0
2014-Oct-18 15:32N 52°28' E 004°35'0 0.0
2014-Oct-18 14:26N 52°28' E 004°35'0 0.0
2014-Oct-18 13:32N 52°28' E 004°35'0 0.0
2014-Oct-18 12:32N 52°28' E 004°35'0 0.0
2014-Oct-18 11:32N 52°28' E 004°35'0 0.1
2014-Oct-18 10:33N 52°28' E 004°35'4 4.5
2014-Oct-18 09:33N 52°27' E 004°28'10 9.9
2014-Oct-18 08:33N 52°22' E 004°13'72 8.6
2014-Oct-18 00:07N 52°09' E 002°17'5 8.9
2014-Oct-17 23:33N 52°08' E 002°09'9 9.1
2014-Oct-17 22:33N 52°07' E 001°54'9 9.0
2014-Oct-17 21:34N 52°05' E 001°40'3 3.2
2014-Oct-17 20:33N 52°03' E 001°36'8 8.6
2014-Oct-17 19:33N 51°57' E 001°26'5 5.1
2014-Oct-17 18:33N 51°58' E 001°17'5 5.1
2014-Oct-17 17:33N 52°01' E 001°11'2 2.3
2014-Oct-17 16:33N 52°03' E 001°10'0 0.0
2014-Oct-17 15:33N 52°03' E 001°10'0 0.0
2014-Oct-17 14:27N 52°03' E 001°10'0 0.0
2014-Oct-17 13:33N 52°03' E 001°10'0 0.0
2014-Oct-17 12:30N 52°03' E 001°10'0 0.0
2014-Oct-17 11:30N 52°03' E 001°10'0 0.0
2014-Oct-17 10:30N 52°03' E 001°10'0 0.0
2014-Oct-17 09:30N 52°03' E 001°10'0 0.0
2014-Oct-17 08:33N 52°03' E 001°10'0 0.0
2014-Oct-17 07:30N 52°03' E 001°10'0 0.0
2014-Oct-17 06:30N 52°03' E 001°10'0 0.0
2014-Oct-17 05:33N 52°03' E 001°10'0 0.0
2014-Oct-17 04:33N 52°03' E 001°10'0 0.0
2014-Oct-17 03:33N 52°03' E 001°10'0 0.0
2014-Oct-17 02:33N 52°03' E 001°10'0 0.0
2014-Oct-17 01:30N 52°03' E 001°10'0 0.0
2014-Oct-17 00:33N 52°03' E 001°10'0 0.0
2014-Oct-16 23:30N 52°03' E 001°10'0 0.0
2014-Oct-16 22:33N 52°03' E 001°10'0 0.0
2014-Oct-16 21:33N 52°03' E 001°10'0 0.0
2014-Oct-16 20:33N 52°03' E 001°10'0 0.0
2014-Oct-16 19:24N 52°03' E 001°10'0 0.0
2014-Oct-16 18:33N 52°03' E 001°10'0 0.0
2014-Oct-16 17:33N 52°03' E 001°10'0 0.0
2014-Oct-16 16:30N 52°03' E 001°10'0 0.0
2014-Oct-16 15:33N 52°03' E 001°10'0 0.0
2014-Oct-16 14:33N 52°03' E 001°10'0 0.0
2014-Oct-16 13:33N 52°03' E 001°10'0 0.0
2014-Oct-16 12:09N 52°03' E 001°10'0 0.0
2014-Oct-16 11:30N 52°03' E 001°10'0 0.0
2014-Oct-16 10:27N 52°03' E 001°10'0 0.0
2014-Oct-16 09:33N 52°03' E 001°10'0 0.0
2014-Oct-16 08:34N 52°03' E 001°10'2 1.8
2014-Oct-16 07:33N 52°01' E 001°10'5 4.8
2014-Oct-16 06:33N 51°59' E 001°17'4 4.2
2014-Oct-16 05:33N 51°56' E 001°22'5 4.8
2014-Oct-16 04:33N 51°57' E 001°29'6 6.3
2014-Oct-16 03:33N 52°01' E 001°37'5 5.4
2014-Oct-16 02:33N 52°01' E 001°46'9 8.6
2014-Oct-16 01:33N 51°59' E 001°60'46 8.7
2014-Oct-15 20:14N 51°47' E 003°12'12 4.1
2014-Oct-15 17:24N 51°46' E 003°30'4 5.0
2014-Oct-15 16:30N 51°49' E 003°36'5 4.3
2014-Oct-15 15:14N 51°52' E 003°44'  
Track history (hours):
 
Tides and Currents Weather Stations Pressure Air Temp Water Temp Dewpoint Dewpoint Depression Visibility Wind Speed Wind Dir Waves Ship Positions

Morgenster

Last reported at 2014-Oct-25 15:11 UTC. Time now 2014-Oct-25 17:32 UTC.
Position N 52°57' E 004°46'.

Length 46 m; draft 2.4 m.

Type: Sailing vessel. MMSI: 245136000.

Date/timePositionNaut miles runAvg speedWind from/ knotsBaromVisibWave heightAir tempDewpointWater temp
2014-Oct-25 15:11N 52°57' E 004°46'0 0.0
2014-Oct-25 04:08N 52°57' E 004°46'0 0.0
2014-Oct-25 00:26N 52°57' E 004°46'0 0.0
2014-Oct-24 15:23N 52°57' E 004°46'0 0.0
2014-Oct-24 13:20N 52°57' E 004°46'0 0.0
2014-Oct-24 02:20N 52°57' E 004°46'0 0.0
2014-Oct-24 00:20N 52°57' E 004°46'0 0.0
2014-Oct-23 23:08N 52°57' E 004°46'0 0.0
2014-Oct-23 21:26N 52°57' E 004°46'0 0.0
2014-Oct-23 18:14N 52°57' E 004°46'0 0.0
2014-Oct-23 16:32N 52°57' E 004°46'0 0.0
2014-Oct-23 15:14N 52°57' E 004°46'0 0.0
2014-Oct-23 13:14N 52°57' E 004°46'0 0.0
2014-Oct-23 11:20N 52°57' E 004°46'0 0.0
2014-Oct-23 10:08N 52°57' E 004°46'0 0.0
2014-Oct-23 09:08N 52°57' E 004°46'0 0.0
2014-Oct-23 08:26N 52°57' E 004°46'0 0.0
2014-Oct-23 06:26N 52°57' E 004°46'0 0.0
2014-Oct-23 05:29N 52°57' E 004°46'0 0.0
2014-Oct-23 04:14N 52°57' E 004°46'0 0.0
2014-Oct-23 02:14N 52°57' E 004°46'0 0.0
2014-Oct-23 01:32N 52°57' E 004°46'0 0.0
2014-Oct-23 00:14N 52°57' E 004°46'0 0.0
2014-Oct-22 23:32N 52°57' E 004°46'0 0.0
2014-Oct-22 22:32N 52°57' E 004°46'0 0.0
2014-Oct-22 21:32N 52°57' E 004°46'0 0.0
2014-Oct-22 20:20N 52°57' E 004°46'0 0.0
2014-Oct-22 17:20N 52°57' E 004°46'0 0.0
2014-Oct-22 12:29N 52°57' E 004°46'0 0.0
2014-Oct-21 23:26N 52°57' E 004°46'0 0.0
2014-Oct-21 09:26N 52°57' E 004°46'0 0.0
2014-Oct-21 06:29N 52°57' E 004°46'0 0.0
2014-Oct-21 05:29N 52°57' E 004°46'0 0.0
2014-Oct-21 04:20N 52°57' E 004°46'0 0.0
2014-Oct-21 02:20N 52°57' E 004°46'0 0.0
2014-Oct-21 01:17N 52°57' E 004°46'0 0.0
2014-Oct-20 23:23N 52°57' E 004°46'0 0.0
2014-Oct-20 22:23N 52°57' E 004°46'0 0.0
2014-Oct-20 21:23N 52°57' E 004°46'0 0.0
2014-Oct-20 20:26N 52°57' E 004°46'0 0.0
2014-Oct-20 18:26N 52°57' E 004°46'0 0.0
2014-Oct-20 17:29N 52°57' E 004°46'0 0.0
2014-Oct-20 15:17N 52°57' E 004°46'1 0.4
2014-Oct-20 13:31N 52°57' E 004°47'10 5.0
2014-Oct-20 11:33N 52°49' E 004°37'10 9.6
2014-Oct-20 10:33N 52°40' E 004°34'8 8.3
2014-Oct-20 09:33N 52°32' E 004°33'4 4.2
2014-Oct-20 08:33N 52°28' E 004°35'4 4.5
2014-Oct-20 07:33N 52°26' E 004°42'6 5.9
2014-Oct-20 06:34N 52°25' E 004°52'3 3.2
2014-Oct-20 05:32N 52°23' E 004°56'0 0.0
2014-Oct-20 04:32N 52°23' E 004°56'0 0.0
2014-Oct-20 03:32N 52°23' E 004°56'0 0.0
2014-Oct-20 02:32N 52°23' E 004°56'0 0.0
2014-Oct-20 01:32N 52°23' E 004°56'0 0.0
2014-Oct-20 00:32N 52°23' E 004°56'0 0.0
2014-Oct-19 23:32N 52°23' E 004°56'0 0.0
2014-Oct-19 22:32N 52°23' E 004°56'0 0.0
2014-Oct-19 21:29N 52°23' E 004°56'0 0.0
2014-Oct-19 20:32N 52°23' E 004°56'0 0.0
2014-Oct-19 19:32N 52°23' E 004°56'0 0.0
2014-Oct-19 18:32N 52°23' E 004°56'0 0.0
2014-Oct-19 17:32N 52°23' E 004°56'0 0.0
2014-Oct-19 16:32N 52°23' E 004°56'0 0.0
2014-Oct-19 15:32N 52°23' E 004°56'0 0.0
2014-Oct-19 14:29N 52°23' E 004°56'0 0.0
2014-Oct-19 13:32N 52°23' E 004°56'2 1.6
2014-Oct-19 12:34N 52°24' E 004°54'5 5.5
2014-Oct-19 11:34N 52°26' E 004°45'5 5.0
2014-Oct-19 10:33N 52°28' E 004°38'1 0.9
2014-Oct-19 09:33N 52°28' E 004°37'1 0.7
2014-Oct-19 08:34N 52°28' E 004°35'1 0.6
2014-Oct-19 07:32N 52°28' E 004°35'0 0.0
2014-Oct-19 06:32N 52°28' E 004°35'0 0.0
2014-Oct-19 05:32N 52°28' E 004°35'0 0.0
2014-Oct-19 04:32N 52°28' E 004°35'0 0.0
2014-Oct-19 03:32N 52°28' E 004°35'0 0.0
2014-Oct-19 02:32N 52°28' E 004°35'0 0.0
2014-Oct-19 01:32N 52°28' E 004°35'0 0.0
2014-Oct-19 00:32N 52°28' E 004°35'0 0.0
2014-Oct-18 23:32N 52°28' E 004°35'0 0.0
2014-Oct-18 22:29N 52°28' E 004°35'0 0.0
2014-Oct-18 21:29N 52°28' E 004°35'0 0.0
2014-Oct-18 20:32N 52°28' E 004°35'0 0.0
2014-Oct-18 19:29N 52°28' E 004°35'0 0.0
2014-Oct-18 18:32N 52°28' E 004°35'0 0.0
2014-Oct-18 17:32N 52°28' E 004°35'0 0.0
2014-Oct-18 16:32N 52°28' E 004°35'0 0.0
2014-Oct-18 15:32N 52°28' E 004°35'0 0.0
2014-Oct-18 14:26N 52°28' E 004°35'0 0.0
2014-Oct-18 13:32N 52°28' E 004°35'0 0.0
2014-Oct-18 12:32N 52°28' E 004°35'0 0.0
2014-Oct-18 11:32N 52°28' E 004°35'0 0.1
2014-Oct-18 10:33N 52°28' E 004°35'4 4.5
2014-Oct-18 09:33N 52°27' E 004°28'10 9.9
2014-Oct-18 08:33N 52°22' E 004°13'72 8.6
2014-Oct-18 00:07N 52°09' E 002°17'5 8.9
2014-Oct-17 23:33N 52°08' E 002°09'9 9.1
2014-Oct-17 22:33N 52°07' E 001°54'9 9.0
2014-Oct-17 21:34N 52°05' E 001°40'3 3.2
2014-Oct-17 20:33N 52°03' E 001°36'8 8.6
2014-Oct-17 19:33N 51°57' E 001°26'5 5.1
2014-Oct-17 18:33N 51°58' E 001°17'5 5.1
2014-Oct-17 17:33N 52°01' E 001°11'2 2.3
2014-Oct-17 16:33N 52°03' E 001°10'0 0.0
2014-Oct-17 15:33N 52°03' E 001°10'0 0.0
2014-Oct-17 14:27N 52°03' E 001°10'0 0.0
2014-Oct-17 13:33N 52°03' E 001°10'0 0.0
2014-Oct-17 12:30N 52°03' E 001°10'0 0.0
2014-Oct-17 11:30N 52°03' E 001°10'0 0.0
2014-Oct-17 10:30N 52°03' E 001°10'0 0.0
2014-Oct-17 09:30N 52°03' E 001°10'0 0.0
2014-Oct-17 08:33N 52°03' E 001°10'0 0.0
2014-Oct-17 07:30N 52°03' E 001°10'0 0.0
2014-Oct-17 06:30N 52°03' E 001°10'0 0.0
2014-Oct-17 05:33N 52°03' E 001°10'0 0.0
2014-Oct-17 04:33N 52°03' E 001°10'0 0.0
2014-Oct-17 03:33N 52°03' E 001°10'0 0.0
2014-Oct-17 02:33N 52°03' E 001°10'0 0.0
2014-Oct-17 01:30N 52°03' E 001°10'0 0.0
2014-Oct-17 00:33N 52°03' E 001°10'0 0.0
2014-Oct-16 23:30N 52°03' E 001°10'0 0.0
2014-Oct-16 22:33N 52°03' E 001°10'0 0.0
2014-Oct-16 21:33N 52°03' E 001°10'0 0.0
2014-Oct-16 20:33N 52°03' E 001°10'0 0.0
2014-Oct-16 19:24N 52°03' E 001°10'0 0.0
2014-Oct-16 18:33N 52°03' E 001°10'0 0.0
2014-Oct-16 17:33N 52°03' E 001°10'0 0.0
2014-Oct-16 16:30N 52°03' E 001°10'0 0.0
2014-Oct-16 15:33N 52°03' E 001°10'0 0.0
2014-Oct-16 14:33N 52°03' E 001°10'0 0.0
2014-Oct-16 13:33N 52°03' E 001°10'0 0.0
2014-Oct-16 12:09N 52°03' E 001°10'0 0.0
2014-Oct-16 11:30N 52°03' E 001°10'0 0.0
2014-Oct-16 10:27N 52°03' E 001°10'0 0.0
2014-Oct-16 09:33N 52°03' E 001°10'0 0.0
2014-Oct-16 08:34N 52°03' E 001°10'2 1.8
2014-Oct-16 07:33N 52°01' E 001°10'5 4.8
2014-Oct-16 06:33N 51°59' E 001°17'4 4.2
2014-Oct-16 05:33N 51°56' E 001°22'5 4.8
2014-Oct-16 04:33N 51°57' E 001°29'6 6.3
2014-Oct-16 03:33N 52°01' E 001°37'5 5.4
2014-Oct-16 02:33N 52°01' E 001°46'9 8.6
2014-Oct-16 01:33N 51°59' E 001°60'46 8.7
2014-Oct-15 20:14N 51°47' E 003°12'12 4.1
2014-Oct-15 17:24N 51°46' E 003°30'4 5.0
2014-Oct-15 16:30N 51°49' E 003°36'5 4.3
2014-Oct-15 15:14N 51°52' E 003°44'  

Dump ship's entire track history